createdAt,value
2023-01-17T00:00:33.811Z,60.60
2023-01-17T00:01:33.863Z,58.70
2023-01-17T00:02:33.865Z,63.03
2023-01-17T00:03:33.787Z,65.67
2023-01-17T00:04:33.741Z,65.77
2023-01-17T00:05:33.772Z,71.47
2023-01-17T00:06:33.743Z,55.98
2023-01-17T00:07:33.743Z,71.26
2023-01-17T00:08:33.793Z,71.35
2023-01-17T00:09:33.725Z,68.70
2023-01-17T00:10:33.682Z,73.19
2023-01-17T00:11:33.704Z,67.74
2023-01-17T00:12:33.655Z,67.13
2023-01-17T00:13:33.644Z,68.63
2023-01-17T00:14:33.656Z,64.15
2023-01-17T00:15:33.671Z,71.27
2023-01-17T00:16:33.658Z,69.51
2023-01-17T00:17:34.269Z,59.18
2023-01-17T00:18:33.576Z,65.35
2023-01-17T00:19:33.570Z,63.38
2023-01-17T00:20:33.592Z,67.28
2023-01-17T00:21:34.262Z,58.83
2023-01-17T00:22:33.587Z,59.09
2023-01-17T00:23:33.575Z,61.83
2023-01-17T00:24:33.561Z,67.26
2023-01-17T00:25:33.528Z,53.99
2023-01-17T00:26:33.496Z,62.56
2023-01-17T00:27:33.553Z,62.80
2023-01-17T00:28:33.608Z,50.83
2023-01-17T00:29:33.483Z,63.38
2023-01-17T00:30:33.513Z,68.29
2023-01-17T00:31:33.495Z,58.12
2023-01-17T00:32:33.470Z,51.44
2023-01-17T00:33:34.470Z,63.12
2023-01-17T00:34:33.413Z,60.32
2023-01-17T00:35:33.400Z,69.11
2023-01-17T00:36:33.393Z,70.13
2023-01-17T00:37:33.419Z,72.38
2023-01-17T00:38:33.401Z,54.09
2023-01-17T00:39:33.501Z,48.24
2023-01-17T00:40:33.423Z,64.65
2023-01-17T00:41:33.433Z,61.27
2023-01-17T00:42:33.423Z,73.30
2023-01-17T00:43:33.370Z,55.46
2023-01-17T00:44:33.408Z,67.91
2023-01-17T00:45:33.364Z,63.44
2023-01-17T00:46:33.409Z,68.80
2023-01-17T00:47:33.303Z,64.93
2023-01-17T00:48:33.311Z,66.75
2023-01-17T00:49:33.312Z,64.77
2023-01-17T00:50:33.303Z,67.61
2023-01-17T00:51:33.307Z,56.95
2023-01-17T00:52:33.309Z,69.42
2023-01-17T00:53:33.308Z,68.01
2023-01-17T00:54:33.242Z,69.20
2023-01-17T00:55:33.263Z,50.30
2023-01-17T00:56:33.259Z,58.44
2023-01-17T00:57:33.213Z,69.55
2023-01-17T00:58:33.235Z,64.86
2023-01-17T00:59:33.249Z,64.10
2023-01-17T01:00:33.324Z,63.72
2023-01-17T01:01:33.239Z,67.25
2023-01-17T01:02:33.226Z,59.29
2023-01-17T01:03:33.174Z,64.33
2023-01-17T01:04:33.207Z,63.82
2023-01-17T01:05:33.138Z,66.39
2023-01-17T01:06:33.229Z,70.07
2023-01-17T01:07:33.090Z,64.00
2023-01-17T01:08:33.060Z,66.09
2023-01-17T01:09:33.155Z,66.32
2023-01-17T01:10:33.071Z,67.43
2023-01-17T01:11:33.101Z,63.39
2023-01-17T01:12:33.072Z,51.79
2023-01-17T01:13:33.075Z,61.14
2023-01-17T01:14:33.044Z,61.32
2023-01-17T01:15:33.136Z,60.05
2023-01-17T01:16:33.077Z,64.69
2023-01-17T01:17:33.062Z,69.16
2023-01-17T01:18:33.012Z,54.71
2023-01-17T01:19:33.008Z,69.96
2023-01-17T01:20:32.957Z,52.18
2023-01-17T01:21:32.964Z,49.79
2023-01-17T01:22:32.985Z,66.41
2023-01-17T01:23:32.949Z,62.01
2023-01-17T01:24:32.932Z,58.45
2023-01-17T01:25:32.924Z,62.66
2023-01-17T01:26:32.931Z,64.42
2023-01-17T01:27:32.954Z,56.79
2023-01-17T01:28:32.908Z,59.54
2023-01-17T01:29:32.897Z,59.08
2023-01-17T01:30:32.927Z,57.79
2023-01-17T01:31:32.879Z,71.19
2023-01-17T01:32:32.843Z,70.23
2023-01-17T01:33:32.863Z,64.57
2023-01-17T01:34:32.871Z,55.75
2023-01-17T01:35:32.834Z,68.15
2023-01-17T01:36:32.844Z,53.98
2023-01-17T01:37:32.794Z,71.61
2023-01-17T01:38:32.832Z,69.50
2023-01-17T01:39:32.789Z,61.83
2023-01-17T01:40:33.360Z,66.42
2023-01-17T01:41:32.762Z,58.46
2023-01-17T01:42:32.753Z,65.49
2023-01-17T01:43:32.811Z,69.32
2023-01-17T01:44:32.725Z,58.04
2023-01-17T01:45:32.808Z,63.43
2023-01-17T01:46:32.737Z,57.49
2023-01-17T01:47:33.407Z,64.81
2023-01-17T01:48:32.694Z,49.42
2023-01-17T01:49:32.677Z,61.54
2023-01-17T01:50:32.677Z,56.82
2023-01-17T01:51:32.631Z,75.15
2023-01-17T01:52:32.659Z,65.49
2023-01-17T01:53:32.618Z,65.03
2023-01-17T01:54:32.614Z,59.07
2023-01-17T01:55:32.635Z,74.22
2023-01-17T01:56:32.616Z,69.51
2023-01-17T01:57:32.581Z,70.38
2023-01-17T01:58:32.580Z,61.67
2023-01-17T01:59:32.562Z,60.60
2023-01-17T02:00:32.582Z,69.92
2023-01-17T02:01:32.692Z,67.58
2023-01-17T02:02:32.567Z,68.91
2023-01-17T02:03:32.589Z,69.20
2023-01-17T02:04:32.540Z,65.98
2023-01-17T02:05:32.517Z,54.02
2023-01-17T02:06:32.490Z,52.86
2023-01-17T02:07:32.454Z,71.69
2023-01-17T02:08:32.510Z,51.34
2023-01-17T02:09:32.468Z,66.89
2023-01-17T02:10:32.455Z,53.04
2023-01-17T02:11:32.464Z,60.62
2023-01-17T02:12:32.461Z,65.36
2023-01-17T02:13:32.434Z,68.91
2023-01-17T02:14:32.395Z,65.57
2023-01-17T02:15:32.389Z,69.36
2023-01-17T02:16:32.426Z,58.45
2023-01-17T02:17:32.405Z,48.34
2023-01-17T02:18:33.239Z,60.64
2023-01-17T02:19:32.386Z,71.24
2023-01-17T02:20:32.392Z,73.94
2023-01-17T02:21:32.336Z,63.85
2023-01-17T02:22:32.413Z,62.09
2023-01-17T02:23:32.331Z,65.25
2023-01-17T02:24:32.262Z,71.21
2023-01-17T02:25:32.283Z,59.55
2023-01-17T02:26:32.282Z,67.25
2023-01-17T02:27:32.295Z,68.57
2023-01-17T02:28:32.244Z,65.53
2023-01-17T02:29:32.261Z,70.02
2023-01-17T02:30:32.250Z,49.93
2023-01-17T02:31:32.260Z,57.09
2023-01-17T02:32:32.230Z,66.88
2023-01-17T02:33:32.244Z,51.10
2023-01-17T02:34:32.203Z,61.53
2023-01-17T02:35:32.171Z,66.31
2023-01-17T02:36:32.163Z,70.56
2023-01-17T02:37:32.140Z,67.06
2023-01-17T02:38:32.200Z,67.67
2023-01-17T02:39:32.167Z,66.08
2023-01-17T02:40:32.127Z,72.77
2023-01-17T02:41:32.876Z,57.20
2023-01-17T02:42:32.143Z,69.82
2023-01-17T02:43:32.188Z,57.63
2023-01-17T02:44:32.121Z,65.85
2023-01-17T02:45:32.105Z,67.06
2023-01-17T02:46:32.111Z,62.14
2023-01-17T02:47:32.078Z,60.88
2023-01-17T02:48:32.084Z,70.55
2023-01-17T02:49:32.075Z,70.46
2023-01-17T02:50:32.060Z,51.61
2023-01-17T02:51:32.034Z,63.94
2023-01-17T02:52:32.013Z,73.38
2023-01-17T02:53:31.983Z,72.67
2023-01-17T02:54:31.996Z,68.70
2023-01-17T02:55:31.977Z,62.83
2023-01-17T02:56:32.699Z,65.43
2023-01-17T02:57:31.930Z,60.38
2023-01-17T02:58:31.943Z,66.34
2023-01-17T02:59:32.848Z,64.98
2023-01-17T03:00:31.890Z,72.11
2023-01-17T03:01:32.097Z,63.73
2023-01-17T03:02:32.026Z,61.58
2023-01-17T03:03:31.863Z,68.53
2023-01-17T03:04:31.890Z,69.84
2023-01-17T03:05:31.860Z,72.39
2023-01-17T03:06:31.842Z,67.93
2023-01-17T03:07:31.870Z,69.72
2023-01-17T03:08:31.846Z,71.57
2023-01-17T03:09:31.830Z,68.88
2023-01-17T03:10:31.794Z,67.76
2023-01-17T03:11:31.822Z,66.83
2023-01-17T03:12:31.779Z,53.81
2023-01-17T03:13:31.809Z,63.92
2023-01-17T03:14:31.797Z,70.92
2023-01-17T03:15:31.754Z,66.60
2023-01-17T03:16:31.787Z,60.91
2023-01-17T03:17:31.783Z,71.03
2023-01-17T03:18:31.769Z,68.72
2023-01-17T03:19:31.736Z,68.31
2023-01-17T03:20:31.725Z,66.25
2023-01-17T03:21:31.722Z,72.56
2023-01-17T03:22:31.645Z,64.60
2023-01-17T03:23:31.650Z,69.94
2023-01-17T03:24:31.688Z,66.90
2023-01-17T03:25:31.637Z,64.63
2023-01-17T03:26:31.680Z,66.04
2023-01-17T03:27:31.644Z,67.86
2023-01-17T03:28:31.646Z,69.52
2023-01-17T03:29:31.677Z,72.47
2023-01-17T03:30:31.631Z,64.14
2023-01-17T03:31:31.553Z,67.93
2023-01-17T03:32:31.553Z,71.35
2023-01-17T03:33:31.575Z,67.34
2023-01-17T03:34:31.615Z,73.80
2023-01-17T03:35:31.553Z,72.77
2023-01-17T03:36:31.532Z,68.37
2023-01-17T03:37:31.584Z,69.61
2023-01-17T03:38:31.521Z,68.93
2023-01-17T03:39:31.503Z,65.69
2023-01-17T03:40:31.485Z,70.37
2023-01-17T03:41:31.530Z,75.28
2023-01-17T03:42:31.575Z,69.86
2023-01-17T03:43:31.482Z,73.24
2023-01-17T03:44:31.423Z,71.67
2023-01-17T03:45:31.476Z,72.99
2023-01-17T03:46:31.405Z,65.73
2023-01-17T03:47:31.412Z,75.01
2023-01-17T03:48:31.457Z,70.81
2023-01-17T03:49:31.397Z,71.92
2023-01-17T03:50:31.442Z,71.63
2023-01-17T03:51:31.400Z,70.49
2023-01-17T03:52:31.360Z,70.16
2023-01-17T03:53:31.394Z,68.40
2023-01-17T03:54:31.424Z,73.82
2023-01-17T03:55:31.320Z,73.11
2023-01-17T03:56:31.352Z,72.16
2023-01-17T03:57:31.301Z,71.70
2023-01-17T03:58:31.295Z,71.64
2023-01-17T03:59:31.292Z,65.79
2023-01-17T04:00:31.371Z,72.52
2023-01-17T04:01:31.396Z,71.31
2023-01-17T04:02:31.293Z,75.76
2023-01-17T04:03:31.209Z,74.47
2023-01-17T04:04:31.262Z,73.17
2023-01-17T04:05:31.208Z,71.70
2023-01-17T04:06:31.238Z,69.40
2023-01-17T04:07:31.213Z,72.74
2023-01-17T04:08:31.213Z,75.49
2023-01-17T04:09:31.144Z,75.61
2023-01-17T04:10:31.196Z,75.28
2023-01-17T04:11:31.172Z,71.94
2023-01-17T04:12:31.157Z,68.82
2023-01-17T04:13:31.150Z,73.89
2023-01-17T04:14:31.136Z,73.69
2023-01-17T04:15:31.101Z,74.30
2023-01-17T04:16:31.159Z,74.11
2023-01-17T04:17:31.092Z,72.72
2023-01-17T04:18:31.073Z,76.89
2023-01-17T04:19:31.104Z,72.92
2023-01-17T04:20:31.074Z,76.06
2023-01-17T04:21:31.099Z,75.28
2023-01-17T04:22:31.045Z,75.20
2023-01-17T04:23:31.075Z,76.39
2023-01-17T04:24:31.027Z,74.76
2023-01-17T04:25:37.757Z,75.80
2023-01-17T04:26:31.045Z,77.35
2023-01-17T04:27:30.974Z,75.14
2023-01-17T04:28:30.961Z,76.05
2023-01-17T04:29:30.963Z,77.22
2023-01-17T04:30:31.014Z,76.67
2023-01-17T04:31:31.022Z,76.58
2023-01-17T04:32:30.997Z,77.03
2023-01-17T04:33:30.964Z,76.58
2023-01-17T04:34:30.993Z,79.25
2023-01-17T04:35:30.900Z,76.30
2023-01-17T04:36:30.910Z,77.53
2023-01-17T04:37:30.848Z,78.14
2023-01-17T04:38:30.920Z,76.19
2023-01-17T04:39:31.028Z,79.71
2023-01-17T04:40:30.975Z,77.67
2023-01-17T04:41:30.913Z,78.23
2023-01-17T04:42:30.863Z,75.68
2023-01-17T04:43:30.868Z,79.02
2023-01-17T04:44:30.893Z,78.78
2023-01-17T04:45:30.918Z,79.20
2023-01-17T04:46:30.884Z,78.62
2023-01-17T04:47:30.783Z,78.68
2023-01-17T04:48:30.874Z,77.77
2023-01-17T04:49:30.796Z,76.13
2023-01-17T04:50:30.817Z,77.13
2023-01-17T04:51:30.788Z,78.42
2023-01-17T04:52:30.719Z,78.90
2023-01-17T04:53:30.755Z,78.34
2023-01-17T04:54:30.712Z,76.54
2023-01-17T04:55:30.909Z,76.53
2023-01-17T04:56:30.743Z,76.92
2023-01-17T04:57:30.746Z,76.09
2023-01-17T04:58:30.659Z,78.62
2023-01-17T04:59:30.676Z,76.26
2023-01-17T05:00:30.736Z,74.99
2023-01-17T05:01:30.763Z,77.00
2023-01-17T05:02:30.698Z,77.44
2023-01-17T05:03:30.641Z,76.87
2023-01-17T05:04:30.698Z,77.88
2023-01-17T05:05:30.650Z,77.81
2023-01-17T05:06:30.638Z,76.71
2023-01-17T05:07:30.587Z,76.44
2023-01-17T05:08:30.591Z,78.68
2023-01-17T05:09:30.608Z,78.30
2023-01-17T05:10:30.641Z,76.61
2023-01-17T05:11:30.652Z,77.83
2023-01-17T05:12:30.659Z,77.08
2023-01-17T05:13:30.550Z,78.99
2023-01-17T05:14:30.593Z,76.20
2023-01-17T05:15:30.526Z,77.31
2023-01-17T05:16:30.545Z,77.59
2023-01-17T05:17:30.485Z,78.24
2023-01-17T05:18:30.594Z,77.48
2023-01-17T05:19:31.353Z,78.36
2023-01-17T05:20:30.544Z,78.45
2023-01-17T05:21:30.465Z,76.18
2023-01-17T05:22:30.592Z,76.85
2023-01-17T05:23:30.481Z,78.97
2023-01-17T05:24:30.462Z,78.22
2023-01-17T05:25:30.406Z,78.38
2023-01-17T05:26:30.448Z,77.99
2023-01-17T05:27:30.428Z,78.56
2023-01-17T05:28:30.552Z,77.94
2023-01-17T05:29:30.544Z,78.37
2023-01-17T05:30:30.344Z,79.18
2023-01-17T05:31:30.379Z,78.06
2023-01-17T05:32:30.456Z,78.73
2023-01-17T05:33:30.397Z,79.91
2023-01-17T05:34:30.369Z,79.91
2023-01-17T05:35:30.294Z,79.38
2023-01-17T05:36:30.331Z,81.44
2023-01-17T05:37:30.340Z,80.47
2023-01-17T05:38:30.244Z,80.03
2023-01-17T05:39:30.268Z,80.11
2023-01-17T05:40:30.306Z,79.69
2023-01-17T05:41:30.297Z,80.58
2023-01-17T05:42:30.241Z,79.67
2023-01-17T05:43:30.253Z,79.26
2023-01-17T05:44:30.282Z,80.08
2023-01-17T05:45:30.176Z,81.25
2023-01-17T05:46:30.207Z,78.99
2023-01-17T05:47:30.145Z,80.80
2023-01-17T05:48:30.158Z,81.34
2023-01-17T05:49:30.173Z,79.91
2023-01-17T05:50:30.212Z,79.99
2023-01-17T05:51:30.146Z,79.42
2023-01-17T05:52:30.147Z,80.17
2023-01-17T05:53:30.223Z,79.92
2023-01-17T05:54:30.215Z,76.48
2023-01-17T05:55:30.182Z,80.09
2023-01-17T05:56:30.098Z,77.18
2023-01-17T05:57:30.131Z,79.35
2023-01-17T05:58:30.067Z,79.27
2023-01-17T05:59:36.969Z,78.09
2023-01-17T06:00:31.093Z,76.73
2023-01-17T06:01:30.139Z,78.57
2023-01-17T06:02:30.123Z,76.98
2023-01-17T06:03:30.067Z,78.69
2023-01-17T06:04:30.070Z,78.83
2023-01-17T06:05:30.104Z,76.63
2023-01-17T06:06:30.134Z,77.39
2023-01-17T06:07:29.963Z,76.35
2023-01-17T06:08:30.006Z,79.20
2023-01-17T06:09:30.061Z,77.93
2023-01-17T06:10:29.935Z,77.55
2023-01-17T06:11:29.960Z,75.67
2023-01-17T06:12:29.890Z,76.70
2023-01-17T06:13:29.914Z,77.69
2023-01-17T06:14:29.920Z,77.59
2023-01-17T06:15:29.917Z,77.76
2023-01-17T06:16:29.883Z,77.87
2023-01-17T06:17:30.042Z,77.21
2023-01-17T06:18:29.927Z,78.65
2023-01-17T06:19:30.040Z,76.99
2023-01-17T06:20:29.929Z,77.85
2023-01-17T06:21:29.908Z,76.58
2023-01-17T06:22:29.914Z,78.69
2023-01-17T06:23:29.909Z,77.03
2023-01-17T06:24:29.950Z,79.43
2023-01-17T06:25:29.924Z,79.00
2023-01-17T06:26:29.934Z,78.76
2023-01-17T06:27:29.952Z,77.42
2023-01-17T06:28:29.856Z,79.06
2023-01-17T06:29:29.841Z,77.70
2023-01-17T06:30:29.797Z,77.93
2023-01-17T06:31:29.815Z,79.57
2023-01-17T06:32:29.746Z,79.12
2023-01-17T06:33:29.766Z,78.30
2023-01-17T06:34:29.713Z,77.77
2023-01-17T06:35:29.688Z,79.43
2023-01-17T06:36:29.720Z,77.94
2023-01-17T06:37:29.667Z,79.46
2023-01-17T06:38:29.739Z,78.17
2023-01-17T06:39:29.837Z,79.19
2023-01-17T06:40:29.615Z,78.81
2023-01-17T06:41:29.647Z,78.48
2023-01-17T06:42:29.666Z,77.20
2023-01-17T06:43:29.645Z,79.01
2023-01-17T06:44:29.644Z,78.20
2023-01-17T06:45:29.710Z,78.93
2023-01-17T06:46:29.746Z,79.82
2023-01-17T06:47:29.581Z,77.44
2023-01-17T06:48:29.551Z,78.95
2023-01-17T06:49:29.570Z,79.52
2023-01-17T06:50:29.554Z,78.23
2023-01-17T06:51:29.541Z,77.60
2023-01-17T06:52:29.531Z,78.65
2023-01-17T06:53:29.493Z,77.84
2023-01-17T06:54:29.550Z,77.07
2023-01-17T06:55:29.485Z,78.17
2023-01-17T06:56:29.511Z,77.22
2023-01-17T06:57:29.512Z,79.19
2023-01-17T06:58:30.109Z,79.76
2023-01-17T06:59:29.479Z,78.19
2023-01-17T07:00:40.947Z,78.48
2023-01-17T07:01:30.528Z,77.62
2023-01-17T07:02:29.460Z,77.10
2023-01-17T07:03:29.466Z,77.72
2023-01-17T07:04:29.417Z,77.77
2023-01-17T07:05:29.432Z,77.28
2023-01-17T07:06:29.325Z,75.39
2023-01-17T07:07:29.370Z,76.50
2023-01-17T07:08:29.390Z,78.89
2023-01-17T07:09:29.310Z,76.98
2023-01-17T07:10:29.261Z,77.98
2023-01-17T07:11:29.314Z,78.00
2023-01-17T07:12:29.330Z,77.79
2023-01-17T07:13:29.275Z,77.20
2023-01-17T07:14:29.308Z,77.74
2023-01-17T07:15:29.236Z,79.09
2023-01-17T07:16:29.333Z,79.50
2023-01-17T07:17:29.871Z,79.12
2023-01-17T07:18:29.241Z,79.82
2023-01-17T07:19:29.352Z,78.80
2023-01-17T07:20:29.225Z,78.81
2023-01-17T07:21:29.223Z,78.50
2023-01-17T07:22:29.206Z,77.14
2023-01-17T07:23:29.840Z,77.32
2023-01-17T07:24:29.166Z,77.59
2023-01-17T07:25:29.164Z,77.21
2023-01-17T07:26:29.115Z,77.90
2023-01-17T07:27:29.139Z,78.39
2023-01-17T07:28:29.160Z,79.55
2023-01-17T07:29:29.150Z,78.52
2023-01-17T07:30:29.083Z,78.53
2023-01-17T07:31:29.129Z,76.05
2023-01-17T07:32:29.086Z,77.92
2023-01-17T07:33:29.052Z,77.59
2023-01-17T07:34:29.052Z,78.89
2023-01-17T07:35:29.023Z,78.36
2023-01-17T07:36:29.027Z,78.68
2023-01-17T07:37:29.040Z,77.96
2023-01-17T07:38:28.983Z,77.60
2023-01-17T07:39:28.972Z,78.43
2023-01-17T07:40:28.960Z,76.71
2023-01-17T07:41:28.965Z,78.80
2023-01-17T07:42:28.989Z,77.84
2023-01-17T07:44:02.391Z,76.73
2023-01-17T07:45:01.325Z,78.81
2023-01-17T07:45:28.909Z,77.76
2023-01-17T07:46:28.933Z,76.65
2023-01-17T07:47:28.909Z,77.42
2023-01-17T07:48:28.915Z,78.75
2023-01-17T07:49:28.884Z,75.87
2023-01-17T07:50:28.883Z,78.07
2023-01-17T07:51:28.899Z,79.40
2023-01-17T07:52:28.838Z,78.56
2023-01-17T07:53:28.802Z,76.40
2023-01-17T07:54:28.867Z,74.50
2023-01-17T07:55:28.816Z,76.50
2023-01-17T07:56:28.808Z,76.45
2023-01-17T07:57:28.822Z,75.13
2023-01-17T07:58:28.784Z,76.65
2023-01-17T07:59:28.746Z,78.61
2023-01-17T08:00:28.769Z,77.77
2023-01-17T08:01:28.827Z,76.11
2023-01-17T08:02:28.780Z,78.05
2023-01-17T08:03:28.767Z,79.24
2023-01-17T08:04:28.788Z,75.06
2023-01-17T08:05:28.744Z,77.28
2023-01-17T08:06:28.701Z,78.23
2023-01-17T08:07:28.734Z,73.63
2023-01-17T08:08:28.680Z,77.47
2023-01-17T08:09:28.695Z,77.74
2023-01-17T08:10:28.685Z,77.05
2023-01-17T08:11:28.628Z,76.64
2023-01-17T08:12:28.639Z,75.28
2023-01-17T08:13:29.936Z,76.08
2023-01-17T08:14:29.616Z,75.45
2023-01-17T08:15:28.608Z,76.03
2023-01-17T08:16:28.728Z,74.28
2023-01-17T08:17:29.314Z,77.92
2023-01-17T08:18:29.290Z,77.15
2023-01-17T08:19:28.571Z,77.15
2023-01-17T08:20:28.594Z,77.07
2023-01-17T08:21:28.541Z,78.03
2023-01-17T08:22:28.542Z,76.40
2023-01-17T08:23:28.531Z,76.59
2023-01-17T08:24:28.534Z,76.19
2023-01-17T08:25:28.502Z,78.93
2023-01-17T08:26:28.519Z,78.04
2023-01-17T08:27:28.501Z,76.21
2023-01-17T08:28:28.480Z,79.17
2023-01-17T08:29:28.482Z,75.66
2023-01-17T08:30:28.443Z,77.89
2023-01-17T08:31:28.486Z,77.82
2023-01-17T08:32:28.422Z,77.07
2023-01-17T08:33:28.496Z,77.50
2023-01-17T08:34:28.399Z,77.21
2023-01-17T08:35:28.420Z,77.77
2023-01-17T08:36:28.385Z,77.68
2023-01-17T08:37:28.383Z,76.98
2023-01-17T08:38:28.360Z,78.48
2023-01-17T08:39:28.380Z,76.74
2023-01-17T08:40:28.363Z,76.64
2023-01-17T08:41:28.352Z,78.22
2023-01-17T08:42:28.310Z,78.48
2023-01-17T08:43:28.347Z,76.80
2023-01-17T08:44:28.295Z,78.24
2023-01-17T08:45:28.376Z,77.73
2023-01-17T08:46:28.252Z,75.92
2023-01-17T08:47:28.263Z,77.52
2023-01-17T08:48:29.205Z,75.54
2023-01-17T08:49:28.802Z,77.20
2023-01-17T08:50:28.211Z,77.82
2023-01-17T08:51:28.218Z,76.59
2023-01-17T08:52:28.208Z,76.84
2023-01-17T08:53:28.232Z,76.51
2023-01-17T08:54:28.808Z,76.16
2023-01-17T08:55:28.223Z,79.08
2023-01-17T08:56:28.207Z,78.19
2023-01-17T08:57:28.147Z,77.45
2023-01-17T08:58:30.311Z,76.79
2023-01-17T08:59:28.132Z,76.28
2023-01-17T09:00:28.116Z,74.47
2023-01-17T09:01:28.327Z,75.75
2023-01-17T09:02:28.142Z,77.64
2023-01-17T09:03:28.083Z,75.95
2023-01-17T09:04:28.154Z,77.97
2023-01-17T09:05:28.087Z,74.21
2023-01-17T09:06:28.782Z,77.76
2023-01-17T09:07:28.085Z,73.49
2023-01-17T09:08:28.024Z,77.03
2023-01-17T09:09:28.040Z,76.50
2023-01-17T09:10:28.044Z,77.97
2023-01-17T09:11:28.058Z,77.78
2023-01-17T09:12:28.012Z,76.81
2023-01-17T09:13:28.093Z,77.52
2023-01-17T09:14:27.992Z,76.91
2023-01-17T09:15:27.985Z,75.98
2023-01-17T09:16:28.014Z,75.87
2023-01-17T09:17:27.955Z,77.01
2023-01-17T09:18:27.968Z,78.76
2023-01-17T09:19:27.964Z,77.13
2023-01-17T09:20:27.941Z,77.40
2023-01-17T09:21:27.927Z,75.28
2023-01-17T09:22:27.938Z,77.02
2023-01-17T09:23:27.985Z,77.77
2023-01-17T09:24:27.886Z,78.01
2023-01-17T09:25:27.876Z,74.81
2023-01-17T09:26:27.877Z,76.29
2023-01-17T09:27:27.858Z,76.32
2023-01-17T09:28:27.887Z,75.59
2023-01-17T09:29:27.883Z,76.36
2023-01-17T09:30:27.851Z,79.03
2023-01-17T09:31:27.847Z,76.63
2023-01-17T09:32:27.807Z,78.68
2023-01-17T09:33:27.791Z,77.92
2023-01-17T09:34:27.834Z,79.34
2023-01-17T09:35:27.759Z,77.65
2023-01-17T09:36:27.733Z,78.37
2023-01-17T09:37:27.757Z,77.10
2023-01-17T09:38:27.756Z,77.89
2023-01-17T09:39:27.810Z,74.89
2023-01-17T09:40:27.724Z,74.70
2023-01-17T09:41:27.861Z,76.98
2023-01-17T09:42:27.679Z,78.89
2023-01-17T09:43:28.666Z,75.46
2023-01-17T09:44:27.678Z,75.00
2023-01-17T09:45:27.707Z,78.16
2023-01-17T09:46:27.636Z,74.52
2023-01-17T09:47:27.715Z,76.38
2023-01-17T09:48:27.628Z,78.83
2023-01-17T09:49:27.619Z,75.53
2023-01-17T09:50:27.612Z,73.93
2023-01-17T09:51:27.615Z,75.71
2023-01-17T09:52:27.648Z,77.50
2023-01-17T09:53:27.587Z,76.37
2023-01-17T09:54:27.571Z,75.34
2023-01-17T09:55:27.616Z,75.95
2023-01-17T09:56:27.526Z,74.94
2023-01-17T09:57:27.560Z,73.94
2023-01-17T09:58:27.497Z,73.49
2023-01-17T09:59:33.270Z,73.57
2023-01-17T10:00:28.529Z,74.62
2023-01-17T10:01:27.795Z,75.19
2023-01-17T10:02:27.675Z,76.09
2023-01-17T10:03:27.587Z,74.50
2023-01-17T10:04:27.496Z,74.19
2023-01-17T10:05:27.440Z,74.84
2023-01-17T10:06:27.463Z,75.09
2023-01-17T10:07:27.427Z,75.76
2023-01-17T10:08:27.414Z,76.77
2023-01-17T10:09:27.386Z,76.63
2023-01-17T10:10:27.405Z,77.69
2023-01-17T10:11:27.367Z,73.66
2023-01-17T10:12:27.393Z,77.07
2023-01-17T10:13:27.395Z,75.55
2023-01-17T10:14:27.331Z,74.19
2023-01-17T10:15:27.332Z,75.01
2023-01-17T10:16:27.332Z,71.16
2023-01-17T10:17:27.345Z,75.37
2023-01-17T10:18:30.427Z,75.05
2023-01-17T10:19:28.317Z,76.09
2023-01-17T10:20:27.329Z,74.63
2023-01-17T10:21:27.265Z,74.97
2023-01-17T10:22:27.269Z,74.18
2023-01-17T10:23:27.301Z,69.80
2023-01-17T10:24:27.247Z,75.83
2023-01-17T10:25:27.213Z,73.77
2023-01-17T10:26:27.245Z,72.71
2023-01-17T10:27:28.179Z,72.25
2023-01-17T10:28:27.198Z,71.53
2023-01-17T10:29:27.202Z,75.82
2023-01-17T10:30:27.181Z,74.49
2023-01-17T10:31:27.158Z,74.62
2023-01-17T10:32:27.181Z,75.67
2023-01-17T10:33:27.179Z,75.05
2023-01-17T10:34:27.111Z,75.78
2023-01-17T10:35:27.169Z,76.04
2023-01-17T10:36:27.114Z,76.32
2023-01-17T10:37:27.159Z,76.68
2023-01-17T10:38:27.086Z,73.79
2023-01-17T10:39:27.071Z,77.99
2023-01-17T10:40:27.057Z,75.04
2023-01-17T10:41:27.062Z,76.26
2023-01-17T10:42:27.065Z,76.60
2023-01-17T10:43:27.033Z,76.02
2023-01-17T10:44:27.089Z,74.84
2023-01-17T10:45:27.013Z,75.10
2023-01-17T10:46:27.058Z,74.28
2023-01-17T10:47:26.994Z,74.54
2023-01-17T10:48:26.978Z,76.48
2023-01-17T10:49:26.959Z,77.09
2023-01-17T10:50:26.982Z,75.45
2023-01-17T10:51:26.945Z,74.68
2023-01-17T10:52:26.938Z,74.11
2023-01-17T10:53:26.940Z,74.57
2023-01-17T10:54:26.915Z,77.52
2023-01-17T10:55:26.906Z,73.46
2023-01-17T10:56:26.947Z,74.69
2023-01-17T10:57:26.878Z,75.27
2023-01-17T10:59:00.711Z,76.17
2023-01-17T10:59:26.895Z,76.79
2023-01-17T11:00:26.871Z,75.16
2023-01-17T11:01:26.917Z,73.97
2023-01-17T11:02:27.049Z,76.01
2023-01-17T11:03:26.866Z,77.37
2023-01-17T11:04:26.849Z,75.31
2023-01-17T11:05:26.786Z,75.95
2023-01-17T11:06:26.807Z,74.04
2023-01-17T11:07:26.866Z,76.34
2023-01-17T11:08:26.788Z,77.12
2023-01-17T11:09:26.858Z,75.58
2023-01-17T11:10:26.777Z,75.03
2023-01-17T11:11:26.727Z,75.01
2023-01-17T11:12:26.739Z,73.88
2023-01-17T11:13:26.715Z,75.00
2023-01-17T11:14:26.719Z,74.42
2023-01-17T11:15:26.677Z,73.25
2023-01-17T11:16:27.688Z,75.38
2023-01-17T11:17:27.757Z,73.57
2023-01-17T11:18:26.745Z,72.53
2023-01-17T11:19:26.773Z,73.22
2023-01-17T11:20:26.699Z,71.48
2023-01-17T11:21:26.756Z,73.71
2023-01-17T11:22:26.685Z,71.02
2023-01-17T11:23:26.636Z,69.28
2023-01-17T11:24:26.766Z,70.67
2023-01-17T11:25:26.623Z,68.42
2023-01-17T11:26:26.618Z,69.91
2023-01-17T11:27:26.599Z,69.44
2023-01-17T11:28:26.579Z,72.05
2023-01-17T11:29:26.606Z,72.60
2023-01-17T11:30:26.571Z,71.85
2023-01-17T11:31:26.669Z,73.15
2023-01-17T11:32:26.520Z,71.53
2023-01-17T11:33:27.890Z,73.64
2023-01-17T11:34:26.531Z,73.41
2023-01-17T11:35:26.540Z,74.25
2023-01-17T11:36:26.479Z,71.52
2023-01-17T11:37:26.485Z,72.08
2023-01-17T11:38:26.476Z,73.36
2023-01-17T11:39:26.522Z,70.93
2023-01-17T11:40:26.410Z,72.58
2023-01-17T11:41:26.459Z,71.93
2023-01-17T11:42:26.456Z,71.83
2023-01-17T11:43:26.413Z,71.54
2023-01-17T11:44:26.426Z,70.81
2023-01-17T11:45:26.393Z,70.77
2023-01-17T11:46:26.387Z,71.19
2023-01-17T11:47:26.383Z,72.08
2023-01-17T11:48:26.360Z,69.04
2023-01-17T11:49:26.363Z,73.39
2023-01-17T11:50:26.362Z,73.37
2023-01-17T11:51:26.381Z,71.24
2023-01-17T11:52:26.391Z,71.94
2023-01-17T11:53:26.287Z,71.55
2023-01-17T11:54:26.314Z,70.18
2023-01-17T11:55:26.343Z,71.62
2023-01-17T11:56:26.321Z,72.75
2023-01-17T11:57:26.333Z,72.17
2023-01-17T11:58:26.304Z,70.43
2023-01-17T11:59:26.221Z,72.49
2023-01-17T12:00:26.208Z,74.17
2023-01-17T12:01:26.242Z,72.70
2023-01-17T12:02:26.200Z,73.05
2023-01-17T12:03:26.228Z,74.56
2023-01-17T12:04:26.200Z,73.42
2023-01-17T12:05:26.210Z,74.35
2023-01-17T12:06:26.288Z,74.05
2023-01-17T12:07:26.108Z,73.04
2023-01-17T12:08:26.155Z,70.76
2023-01-17T12:09:26.142Z,72.65
2023-01-17T12:10:26.162Z,72.82
2023-01-17T12:11:26.125Z,73.74
2023-01-17T12:12:26.161Z,71.47
2023-01-17T12:13:26.149Z,72.67
2023-01-17T12:14:26.089Z,74.10
2023-01-17T12:15:26.069Z,71.62
2023-01-17T12:16:26.085Z,73.64
2023-01-17T12:17:26.067Z,71.95
2023-01-17T12:18:26.021Z,72.43
2023-01-17T12:19:26.141Z,72.37
2023-01-17T12:20:26.010Z,72.59
2023-01-17T12:21:26.008Z,71.69
2023-01-17T12:22:26.111Z,72.59
2023-01-17T12:23:26.035Z,71.79
2023-01-17T12:24:25.969Z,71.70
2023-01-17T12:25:26.001Z,73.02
2023-01-17T12:26:25.998Z,72.18
2023-01-17T12:27:25.945Z,73.49
2023-01-17T12:28:26.674Z,73.20
2023-01-17T12:29:25.879Z,72.10
2023-01-17T12:30:25.857Z,73.17
2023-01-17T12:31:26.008Z,70.58
2023-01-17T12:32:25.859Z,74.82
2023-01-17T12:33:25.830Z,73.25
2023-01-17T12:34:25.809Z,73.57
2023-01-17T12:35:25.843Z,71.36
2023-01-17T12:36:25.791Z,75.06
2023-01-17T12:37:25.846Z,72.55
2023-01-17T12:38:32.611Z,75.57
2023-01-17T12:39:27.817Z,74.44
2023-01-17T12:40:25.827Z,75.27
2023-01-17T12:41:25.750Z,74.64
2023-01-17T12:42:25.778Z,75.06
2023-01-17T12:43:26.220Z,74.60
2023-01-17T12:44:25.718Z,74.07
2023-01-17T12:45:25.730Z,75.54
2023-01-17T12:46:25.834Z,76.29
2023-01-17T12:47:25.718Z,77.81
2023-01-17T12:48:25.743Z,77.04
2023-01-17T12:49:25.692Z,75.77
2023-01-17T12:50:25.683Z,74.57
2023-01-17T12:51:25.651Z,75.51
2023-01-17T12:52:25.636Z,75.33